Архив погоды в Мензелинске

Метеограмма Мензелинск
Понедельник, 24 Сентября
Время местн. Темп Ветер Видим Явления Облачность нижн/средн/верх Атм. давл. Влжн Точка росы ВНГО R Сост. почвы Tg s
Напр Скр Прв ур.ст ур.м изм
06:00 +12.1° Ю,Ю-З 2 - 10 км - ясно 750 760 -0.5 74% +7.6° более 2.5 км 0 Сухая (без трещин) - -
03:00 +13.5° Ю-З 2 - 10 км - ясно 751 761 -0.4 72% +8.6° более 2.5 км - - - -
00:00 +13.4° Ю-З 2 - 10 км - ясно 751 761 -0.5 77% +9.4° более 2.5 км - - - -
Воскресенье, 23 Сентября
Время местн. Темп Ветер Видим Явления Облачность нижн/средн/верх Атм. давл. Влжн Точка росы ВНГО R Сост. почвы Tg s
Напр Скр Прв ур.ст ур.м изм
21:00 +15.3° Ю-З 2 - 10 км - ясно 752 762 -0.5 73% +10.5° более 2.5 км - - - -
18:00 +18.5° Ю 1 - 10 км - переменная облачность 752 762 -0.6 66% +12° - 0 - - -
15:00 +24.1° Ю-З 2 - 10 км - облачно с прояснениями 753 762 -1 42% +10.4° 1.5 км - - - -
12:00 +23.9° Ю 2 - 10 км - переменная облачность 754 763 -0.8 49% +12.5° 1.5 км - - - -
09:00 +17.9° Ю 1 - 10 км небо без изменений {туман} ясно 755 764 +0.1 76% +13.6° более 2.5 км - - - -
06:00 +11.4° Ю-З 2 - 0.5 км туман, небо видно ясно 755 765 +0.5 91% +10° более 2.5 км 0 Сухая (без трещин) - -
03:00 +11.5° З 1 - 1 км дымка ясно 755 765 +0.5 91% +10.1° более 2.5 км - - - -
00:00 +12.2° З,Ю-З 2 - 4 км дымка ясно 754 764 0 91% +10.7° более 2.5 км - - - -
Суббота, 22 Сентября
Время местн. Темп Ветер Видим Явления Облачность нижн/средн/верх Атм. давл. Влжн Точка росы ВНГО R Сост. почвы Tg s
Напр Скр Прв ур.ст ур.м изм
21:00 +13.1° Ю,Ю-З 2 - 10 км - ясно 754 764 +0.5 89% +11.3° более 2.5 км - - - -
18:00 +15.6° З 2 - 10 км - переменная облачность 754 764 +0.1 82% +12.6° - 0 - - -
15:00 +21.2° З 4 - 10 км - переменная облачность 754 763 -0.5 63% +13.8° 1 км - - - -
12:00 +20.7° З,С-З 6 - 10 км - переменная облачность 754 764 -0.8 62% +13.2° 1 км - - - -
06:00 +7.2° З,Ю-З 2 - 10 км - облачно 755 765 +0.4 86% +5° 1 км 0 Влажная (без луж) - -
03:00 +6.7° Ю-З 1 - 10 км - переменная облачность 754 765 +0.5 82% +3.8° - - - - -
00:00 +4.3° З 2 - 10 км - ясно 754 764 +0.7 80% +1.1° более 2.5 км - - - -
Пятница, 21 Сентября
Время местн. Темп Ветер Видим Явления Облачность нижн/средн/верх Атм. давл. Влжн Точка росы ВНГО R Сост. почвы Tg s
Напр Скр Прв ур.ст ур.м изм
21:00 +5° З,Ю-З 1 - 10 км - ясно 753 764 +0.8 80% +1.9° более 2.5 км - - - -
18:00 +10.1° С 3 - 10 км - ясно 753 763 +1.1 64% +3.6° более 2.5 км 0 - - -
15:00 +15° С 5 - 10 км - ясно 751 761 +0.3 43% +2.6° более 2.5 км - - - -
12:00 +14° С-З 6 - 10 км - ясно 751 761 +0.5 48% +3.2° более 2.5 км - - - -
09:00 +11.3° С 6 - 10 км - ясно 751 761 +0.8 61% +4.1° более 2.5 км - - - -
06:00 +6° С,С-З 3 - 10 км - ясно 750 760 +1.4 81% +3° более 2.5 км 0 Влажная (без луж) - -
03:00 +5.4° С-З 3 - 10 км - облачно 748 759 +0.7 81% +2.4° - - - - -
00:00 +6.6° С,С-З 4 - 10 км - переменная облачность 748 758 0 76% +2.7° - - - - -